createdAt,value
2022-09-18T00:01:42.030Z,20.23
2022-09-18T00:04:13.886Z,20.40
2022-09-18T00:06:43.640Z,18.17
2022-09-18T00:09:14.377Z,18.60
2022-09-18T00:11:45.224Z,20.20
2022-09-18T00:14:26.301Z,17.58
2022-09-18T00:16:53.872Z,18.33
2022-09-18T00:19:21.931Z,18.33
2022-09-18T00:21:51.255Z,13.88
2022-09-18T00:24:19.493Z,16.67
2022-09-18T00:26:47.962Z,22.40
2022-09-18T00:29:16.305Z,11.85
2022-09-18T00:31:46.451Z,17.55
2022-09-18T00:34:15.612Z,17.80
2022-09-18T00:36:43.884Z,14.93
2022-09-18T00:39:14.613Z,11.52
2022-09-18T00:41:43.496Z,14.30
2022-09-18T00:44:42.783Z,12.03
2022-09-18T00:47:12.537Z,18.05
2022-09-18T00:49:47.403Z,10.48
2022-09-18T00:52:17.397Z,16.40
2022-09-18T00:54:52.850Z,16.02
2022-09-18T00:57:25.092Z,17.50
2022-09-18T00:59:58.059Z,19.08
2022-09-18T01:02:30.948Z,14.13
2022-09-18T01:05:00.451Z,13.73
2022-09-18T01:07:35.696Z,16.48
2022-09-18T01:10:09.073Z,13.55
2022-09-18T01:12:58.971Z,20.58
2022-09-18T01:15:48.056Z,15.25
2022-09-18T01:18:23.866Z,18.00
2022-09-18T01:21:17.795Z,8.45
2022-09-18T01:23:59.389Z,10.90
2022-09-18T01:26:56.638Z,11.82
2022-09-18T01:29:47.889Z,9.18
2022-09-18T01:32:27.940Z,7.60
2022-09-18T01:35:37.187Z,13.77
2022-09-18T01:38:14.172Z,10.68
2022-09-18T01:40:52.978Z,10.88
2022-09-18T01:43:25.236Z,10.85
2022-09-18T01:46:03.876Z,9.27
2022-09-18T01:48:48.438Z,10.32
2022-09-18T01:51:21.423Z,13.13
2022-09-18T01:53:54.940Z,7.75
2022-09-18T01:56:31.084Z,6.10
2022-09-18T01:59:05.366Z,9.18
2022-09-18T02:01:46.817Z,4.07
2022-09-18T02:04:21.014Z,13.02
2022-09-18T02:07:07.864Z,3.83
2022-09-18T02:09:35.450Z,2.45
2022-09-18T02:12:07.421Z,12.27
2022-09-18T02:14:44.210Z,7.88
2022-09-18T02:17:49.354Z,9.00
2022-09-18T02:20:32.905Z,10.18
2022-09-18T02:23:09.135Z,4.03
2022-09-18T02:25:50.258Z,4.25
2022-09-18T02:28:20.943Z,9.43
2022-09-18T02:30:48.554Z,3.95
2022-09-18T02:33:31.079Z,5.25
2022-09-18T02:36:16.943Z,4.13
2022-09-18T02:39:07.214Z,3.88
2022-09-18T02:41:45.951Z,2.88
2022-09-18T02:44:25.253Z,9.18
2022-09-18T02:47:02.516Z,4.45
2022-09-18T02:50:26.685Z,7.57
2022-09-18T02:52:54.888Z,6.25
2022-09-18T02:55:34.169Z,6.00
2022-09-18T02:58:10.108Z,4.28
2022-09-18T03:00:43.514Z,8.80
2022-09-18T03:03:18.775Z,5.38
2022-09-18T03:05:55.868Z,4.07
2022-09-18T03:08:28.431Z,4.53
2022-09-18T03:11:00.019Z,6.78
2022-09-18T03:13:28.457Z,6.68
2022-09-18T03:15:58.243Z,10.05
2022-09-18T03:18:26.641Z,4.60
2022-09-18T03:20:56.376Z,4.50
2022-09-18T03:23:23.800Z,4.53
2022-09-18T03:25:54.541Z,7.05
2022-09-18T03:28:21.911Z,5.03
2022-09-18T03:30:51.401Z,7.10
2022-09-18T03:33:19.626Z,7.25
2022-09-18T03:35:51.676Z,5.68
2022-09-18T03:38:25.852Z,7.07
2022-09-18T03:40:54.495Z,4.65
2022-09-18T03:43:21.587Z,10.68
2022-09-18T03:45:52.971Z,7.70
2022-09-18T03:48:20.585Z,6.45
2022-09-18T03:50:50.832Z,4.72
2022-09-18T03:53:18.166Z,5.25
2022-09-18T03:56:05.783Z,8.70
2022-09-18T03:59:11.403Z,7.88
2022-09-18T04:01:59.695Z,5.25
2022-09-18T04:04:27.192Z,8.02
2022-09-18T04:07:00.309Z,9.32
2022-09-18T04:09:45.295Z,6.53
2022-09-18T04:12:12.807Z,9.85
2022-09-18T04:14:46.210Z,7.05
2022-09-18T04:17:14.607Z,7.25
2022-09-18T04:19:44.705Z,7.03
2022-09-18T04:22:13.985Z,7.32
2022-09-18T04:24:41.455Z,7.50
2022-09-18T04:27:08.592Z,5.72
2022-09-18T04:29:37.887Z,9.38
2022-09-18T04:32:07.622Z,7.17
2022-09-18T04:34:35.987Z,4.82
2022-09-18T04:37:10.142Z,11.35
2022-09-18T04:39:40.693Z,9.85
2022-09-18T04:42:11.484Z,9.15
2022-09-18T04:44:39.124Z,16.83
2022-09-18T04:47:10.859Z,11.38
2022-09-18T04:49:40.949Z,12.18
2022-09-18T04:52:08.268Z,5.68
2022-09-18T04:54:35.555Z,8.23
2022-09-18T04:57:05.254Z,10.20
2022-09-18T04:59:34.557Z,8.15
2022-09-18T05:02:01.902Z,6.30
2022-09-18T05:04:29.143Z,11.77
2022-09-18T05:07:07.429Z,4.93
2022-09-18T05:09:37.073Z,9.85
2022-09-18T05:12:06.855Z,7.07
2022-09-18T05:14:36.048Z,7.15
2022-09-18T05:17:08.440Z,12.52
2022-09-18T05:19:38.818Z,6.15
2022-09-18T05:22:21.697Z,11.27
2022-09-18T05:24:51.534Z,8.93
2022-09-18T05:27:26.140Z,6.22
2022-09-18T05:29:54.922Z,14.75
2022-09-18T05:32:28.006Z,7.28
2022-09-18T05:34:56.357Z,7.80
2022-09-18T05:37:23.899Z,6.80
2022-09-18T05:39:54.547Z,6.40
2022-09-18T05:42:21.930Z,14.50
2022-09-18T05:44:52.410Z,10.20
2022-09-18T05:47:24.440Z,10.45
2022-09-18T05:49:51.614Z,13.00
2022-09-18T05:52:21.016Z,8.35
2022-09-18T05:54:50.398Z,10.95
2022-09-18T05:57:17.579Z,10.35
2022-09-18T05:59:48.263Z,9.27
2022-09-18T06:02:18.100Z,7.07
2022-09-18T06:05:07.522Z,10.93
2022-09-18T06:07:36.977Z,12.65
2022-09-18T06:10:06.677Z,6.05
2022-09-18T06:12:33.793Z,8.23
2022-09-18T06:15:03.788Z,9.88
2022-09-18T06:17:33.194Z,11.68
2022-09-18T06:20:07.990Z,11.27
2022-09-18T06:22:38.470Z,9.60
2022-09-18T06:25:11.193Z,11.57
2022-09-18T06:27:38.951Z,10.45
2022-09-18T06:30:06.900Z,8.38
2022-09-18T06:32:38.489Z,17.88
2022-09-18T06:35:06.216Z,11.50
2022-09-18T06:37:35.625Z,14.40
2022-09-18T06:40:15.596Z,6.45
2022-09-18T06:43:04.144Z,11.55
2022-09-18T06:45:57.405Z,9.95
2022-09-18T06:48:29.393Z,10.35
2022-09-18T06:51:03.281Z,9.45
2022-09-18T06:53:38.659Z,9.32
2022-09-18T06:56:06.030Z,12.63
2022-09-18T06:58:38.083Z,12.98
2022-09-18T07:01:05.471Z,13.35
2022-09-18T07:03:39.293Z,11.02
2022-09-18T07:06:21.658Z,11.82
2022-09-18T07:08:53.408Z,8.02
2022-09-18T07:11:36.843Z,8.05
2022-09-18T07:14:11.502Z,10.50
2022-09-18T07:16:41.154Z,6.75
2022-09-18T07:19:08.583Z,6.90
2022-09-18T07:21:38.191Z,15.85
2022-09-18T07:24:09.765Z,7.45
2022-09-18T07:26:37.350Z,7.22
2022-09-18T07:29:10.145Z,7.80
2022-09-18T07:31:42.871Z,8.52
2022-09-18T07:34:11.840Z,10.52
2022-09-18T07:36:39.476Z,12.48
2022-09-18T07:39:08.941Z,7.55
2022-09-18T07:41:58.086Z,11.15
2022-09-18T07:44:26.217Z,7.47
2022-09-18T07:46:58.105Z,8.57
2022-09-18T07:49:27.826Z,6.75
2022-09-18T07:51:55.209Z,7.38
2022-09-18T07:54:24.736Z,13.10
2022-09-18T07:57:01.206Z,8.82
2022-09-18T07:59:39.589Z,7.55
2022-09-18T08:02:14.139Z,7.18
2022-09-18T08:04:44.621Z,7.70
2022-09-18T08:07:32.379Z,7.32
2022-09-18T08:10:20.983Z,6.53
2022-09-18T08:13:08.707Z,7.03
2022-09-18T08:15:54.574Z,5.18
2022-09-18T08:18:40.546Z,7.82
2022-09-18T08:21:14.715Z,11.93
2022-09-18T08:23:50.543Z,5.25
2022-09-18T08:26:22.010Z,4.25
2022-09-18T08:28:51.276Z,6.25
2022-09-18T08:31:21.505Z,8.48
2022-09-18T08:33:52.761Z,4.43
2022-09-18T08:36:20.500Z,6.22
2022-09-18T08:39:10.783Z,4.95
2022-09-18T08:42:11.550Z,7.05
2022-09-18T08:44:54.480Z,3.42
2022-09-18T08:50:21.197Z,6.63
2022-09-18T08:52:54.602Z,7.20
2022-09-18T08:55:31.262Z,4.00
2022-09-18T08:58:24.188Z,4.70
2022-09-18T09:00:58.442Z,4.32
2022-09-18T09:03:59.529Z,8.80
2022-09-18T09:06:37.668Z,5.80
2022-09-18T09:09:21.262Z,3.28
2022-09-18T09:12:16.215Z,2.97
2022-09-18T09:15:21.858Z,4.32
2022-09-18T09:18:19.489Z,5.13
2022-09-18T09:20:55.636Z,2.65
2022-09-18T09:23:51.398Z,3.95
2022-09-18T09:26:41.502Z,1.63
2022-09-18T09:29:35.834Z,3.75
2022-09-18T09:32:37.374Z,2.88
2022-09-18T09:35:34.783Z,1.63
2022-09-18T09:38:46.968Z,5.53
2022-09-18T09:41:37.371Z,2.15
2022-09-18T09:44:32.485Z,4.30
2022-09-18T09:47:23.295Z,2.13
2022-09-18T09:50:17.317Z,1.88
2022-09-18T09:52:47.729Z,5.68
2022-09-18T09:55:26.634Z,3.33
2022-09-18T09:58:10.032Z,2.00
2022-09-18T10:01:26.770Z,3.53
2022-09-18T10:04:26.840Z,1.38
2022-09-18T10:06:58.558Z,4.82
2022-09-18T10:09:39.301Z,3.05
2022-09-18T10:12:31.105Z,3.35
2022-09-18T10:15:15.497Z,4.82
2022-09-18T10:17:43.860Z,3.95
2022-09-18T10:20:28.923Z,2.58
2022-09-18T10:23:03.779Z,2.58
2022-09-18T10:25:41.539Z,5.03
2022-09-18T10:28:21.413Z,2.88
2022-09-18T10:31:10.754Z,3.83
2022-09-18T10:33:45.135Z,4.93
2022-09-18T10:36:22.541Z,6.43
2022-09-18T10:38:54.941Z,3.33
2022-09-18T10:41:33.620Z,3.05
2022-09-18T10:44:01.416Z,6.45
2022-09-18T10:46:36.546Z,3.92
2022-09-18T10:49:20.842Z,2.78
2022-09-18T10:52:21.300Z,4.57
2022-09-18T10:55:09.407Z,2.92
2022-09-18T10:58:11.941Z,2.83
2022-09-18T11:00:59.132Z,2.50
2022-09-18T11:03:40.758Z,2.63
2022-09-18T11:06:26.557Z,4.13
2022-09-18T11:09:01.276Z,3.30
2022-09-18T11:11:33.186Z,3.58
2022-09-18T11:14:30.080Z,6.38
2022-09-18T11:17:28.926Z,3.10
2022-09-18T11:20:01.116Z,3.55
2022-09-18T11:22:41.691Z,3.08
2022-09-18T11:25:29.102Z,3.25
2022-09-18T11:28:30.895Z,2.90
2022-09-18T11:31:21.639Z,2.03
2022-09-18T11:33:59.289Z,2.78
2022-09-18T11:36:32.975Z,3.70
2022-09-18T11:39:23.883Z,3.78
2022-09-18T11:41:54.970Z,4.45
2022-09-18T11:44:37.967Z,3.40
2022-09-18T11:47:32.627Z,1.77
2022-09-18T11:50:26.368Z,3.08
2022-09-18T11:55:52.834Z,5.72
2022-09-18T11:58:48.291Z,7.05
2022-09-18T12:01:35.629Z,2.97
2022-09-18T12:04:49.266Z,1.67
2022-09-18T12:07:44.746Z,4.35
2022-09-18T12:10:44.223Z,2.40
2022-09-18T12:13:37.694Z,5.72
2022-09-18T12:16:23.197Z,3.00
2022-09-18T12:18:56.090Z,4.72
2022-09-18T12:21:48.939Z,4.07
2022-09-18T12:24:18.865Z,5.57
2022-09-18T12:26:54.711Z,2.42
2022-09-18T12:29:41.443Z,4.45
2022-09-18T12:32:33.398Z,5.78
2022-09-18T12:35:06.158Z,4.55
2022-09-18T12:37:54.002Z,3.70
2022-09-18T12:40:55.514Z,2.30
2022-09-18T12:44:04.887Z,5.68
2022-09-18T12:46:41.235Z,2.70
2022-09-18T12:49:50.856Z,3.80
2022-09-18T12:52:27.726Z,1.77
2022-09-18T12:55:20.428Z,1.75
2022-09-18T12:57:59.258Z,2.60
2022-09-18T13:00:30.429Z,3.72
2022-09-18T13:03:13.872Z,1.38
2022-09-18T13:05:54.556Z,3.83
2022-09-18T13:08:29.871Z,5.95
2022-09-18T13:11:18.216Z,2.72
2022-09-18T13:13:57.575Z,3.72
2022-09-18T13:16:50.467Z,3.30
2022-09-18T13:19:32.622Z,3.00
2022-09-18T13:22:10.997Z,5.57
2022-09-18T13:24:40.641Z,5.57
2022-09-18T13:27:18.852Z,1.15
2022-09-18T13:29:51.881Z,3.03
2022-09-18T13:32:35.228Z,2.78
2022-09-18T13:35:16.218Z,6.80
2022-09-18T13:37:49.210Z,1.92
2022-09-18T13:40:40.229Z,3.53
2022-09-18T13:43:22.524Z,4.65
2022-09-18T13:45:52.755Z,3.67
2022-09-18T13:48:27.573Z,2.55
2022-09-18T13:51:09.587Z,2.28
2022-09-18T13:53:42.360Z,3.08
2022-09-18T13:56:17.174Z,3.42
2022-09-18T13:58:55.983Z,1.27
2022-09-18T14:01:42.894Z,1.05
2022-09-18T14:04:38.959Z,3.63
2022-09-18T14:07:26.049Z,2.03
2022-09-18T14:10:20.725Z,3.45
2022-09-18T14:13:31.304Z,1.38
2022-09-18T14:16:07.050Z,3.13
2022-09-18T14:18:43.411Z,1.60
2022-09-18T14:21:18.979Z,1.80
2022-09-18T14:23:46.086Z,1.52
2022-09-18T14:26:38.459Z,3.63
2022-09-18T14:29:12.133Z,3.03
2022-09-18T14:31:44.372Z,3.58
2022-09-18T14:34:53.887Z,2.60
2022-09-18T14:37:35.182Z,1.90
2022-09-18T14:40:19.406Z,4.53
2022-09-18T14:42:47.414Z,2.35
2022-09-18T14:45:18.956Z,1.00
2022-09-18T14:47:47.939Z,4.32
2022-09-18T14:50:37.637Z,0.80
2022-09-18T14:53:25.990Z,4.37
2022-09-18T14:56:02.042Z,3.58
2022-09-18T14:58:41.631Z,2.20
2022-09-18T15:01:29.803Z,3.63
2022-09-18T15:04:01.360Z,0.68
2022-09-18T15:06:40.377Z,3.25
2022-09-18T15:09:20.632Z,2.60
2022-09-18T15:12:01.714Z,4.45
2022-09-18T15:14:41.869Z,6.68
2022-09-18T15:17:26.453Z,4.03
2022-09-18T15:20:00.993Z,3.67
2022-09-18T15:22:29.941Z,11.20
2022-09-18T15:25:00.858Z,9.30
2022-09-18T15:27:32.069Z,6.07
2022-09-18T15:30:03.161Z,9.77
2022-09-18T15:32:43.462Z,7.68
2022-09-18T15:35:21.917Z,7.13
2022-09-18T15:37:59.776Z,5.47
2022-09-18T15:40:34.866Z,10.25
2022-09-18T15:43:26.908Z,5.40
2022-09-18T15:46:08.718Z,6.50
2022-09-18T15:48:44.103Z,5.07
2022-09-18T15:51:16.383Z,9.00
2022-09-18T15:54:05.699Z,6.47
2022-09-18T15:56:34.495Z,7.78
2022-09-18T15:59:05.153Z,8.77
2022-09-18T16:01:36.432Z,4.88
2022-09-18T16:04:34.570Z,8.25
2022-09-18T16:07:06.524Z,5.78
2022-09-18T16:09:35.737Z,4.82
2022-09-18T16:12:25.836Z,8.90
2022-09-18T16:15:17.604Z,6.07
2022-09-18T16:17:45.012Z,7.88
2022-09-18T16:20:32.932Z,6.53
2022-09-18T16:23:19.848Z,8.55
2022-09-18T16:26:06.176Z,8.65
2022-09-18T16:28:36.801Z,9.43
2022-09-18T16:31:06.825Z,10.38
2022-09-18T16:33:50.307Z,6.38
2022-09-18T16:36:27.742Z,20.23
2022-09-18T16:39:00.649Z,7.45
2022-09-18T16:41:31.658Z,10.52
2022-09-18T16:44:00.089Z,9.27
2022-09-18T16:46:42.270Z,11.25
2022-09-18T16:49:16.054Z,13.10
2022-09-18T16:51:45.978Z,14.98
2022-09-18T16:54:13.065Z,10.25
2022-09-18T16:56:51.551Z,8.68
2022-09-18T16:59:26.498Z,13.20
2022-09-18T17:02:04.255Z,12.98
2022-09-18T17:04:33.881Z,12.02
2022-09-18T17:07:01.973Z,13.88
2022-09-18T17:09:32.685Z,14.68
2022-09-18T17:12:02.268Z,10.25
2022-09-18T17:14:29.650Z,12.48
2022-09-18T17:16:59.022Z,9.10
2022-09-18T17:19:26.517Z,17.80
2022-09-18T17:21:58.945Z,12.48
2022-09-18T17:24:28.345Z,8.55
2022-09-18T17:27:00.801Z,7.80
2022-09-18T17:29:28.115Z,12.48
2022-09-18T17:31:55.530Z,14.45
2022-09-18T17:34:29.026Z,14.80
2022-09-18T17:37:00.549Z,14.27
2022-09-18T17:39:28.317Z,12.95
2022-09-18T17:41:59.021Z,13.70
2022-09-18T17:44:28.037Z,14.60
2022-09-18T17:46:55.458Z,14.27
2022-09-18T17:49:26.248Z,19.40
2022-09-18T17:51:59.665Z,13.57
2022-09-18T17:54:32.213Z,13.48
2022-09-18T17:57:11.688Z,17.27
2022-09-18T17:59:43.784Z,17.38
2022-09-18T18:02:13.869Z,22.33
2022-09-18T18:04:41.657Z,20.40
2022-09-18T18:07:09.174Z,15.73
2022-09-18T18:09:37.571Z,18.15
2022-09-18T18:12:07.898Z,15.82
2022-09-18T18:14:35.125Z,16.83
2022-09-18T18:17:05.003Z,17.63
2022-09-18T18:19:34.902Z,17.30
2022-09-18T18:22:04.589Z,16.05
2022-09-18T18:24:34.561Z,14.35
2022-09-18T18:27:08.933Z,15.70
2022-09-18T18:29:39.737Z,15.23
2022-09-18T18:32:07.034Z,18.80
2022-09-18T18:34:36.706Z,16.08
2022-09-18T18:37:12.352Z,20.33
2022-09-18T18:39:39.723Z,20.95
2022-09-18T18:42:07.399Z,17.55
2022-09-18T18:44:40.139Z,18.30
2022-09-18T18:49:39.311Z,14.80
2022-09-18T18:52:12.411Z,21.75
2022-09-18T18:54:39.803Z,16.73
2022-09-18T18:57:09.974Z,18.25
2022-09-18T18:59:40.244Z,17.85
2022-09-18T19:02:14.384Z,17.55
2022-09-18T19:04:43.414Z,11.10
2022-09-18T19:07:10.918Z,19.67
2022-09-18T19:09:42.651Z,20.25
2022-09-18T19:12:10.599Z,13.77
2022-09-18T19:14:38.075Z,12.63
2022-09-18T19:17:05.622Z,16.60
2022-09-18T19:19:33.962Z,11.10
2022-09-18T19:22:04.087Z,12.57
2022-09-18T19:24:31.689Z,14.45
2022-09-18T19:26:59.136Z,11.65
2022-09-18T19:29:30.130Z,10.23
2022-09-18T19:32:00.321Z,8.10
2022-09-18T19:34:33.150Z,7.80
2022-09-18T19:37:08.601Z,10.40
2022-09-18T19:39:39.001Z,8.82
2022-09-18T19:42:12.274Z,12.95
2022-09-18T19:44:57.384Z,11.57
2022-09-18T19:47:48.714Z,14.02
2022-09-18T19:50:27.388Z,13.27
2022-09-18T19:52:59.756Z,8.48
2022-09-18T19:55:28.461Z,12.73
2022-09-18T19:57:59.842Z,6.10
2022-09-18T20:00:27.292Z,8.70
2022-09-18T20:03:00.389Z,10.48
2022-09-18T20:05:27.929Z,11.43
2022-09-18T20:07:55.110Z,13.02
2022-09-18T20:10:23.810Z,11.35
2022-09-18T20:12:54.024Z,17.85
2022-09-18T20:15:23.714Z,8.52
2022-09-18T20:17:55.759Z,9.23
2022-09-18T20:20:27.990Z,11.32
2022-09-18T20:22:58.556Z,5.82
2022-09-18T20:25:25.646Z,7.65
2022-09-18T20:27:52.992Z,12.43
2022-09-18T20:30:26.203Z,12.68
2022-09-18T20:32:54.484Z,7.82
2022-09-18T20:35:24.095Z,5.65
2022-09-18T20:37:51.490Z,12.25
2022-09-18T20:40:21.096Z,8.63
2022-09-18T20:42:51.536Z,9.85
2022-09-18T20:45:21.631Z,18.48
2022-09-18T20:47:48.960Z,10.82
2022-09-18T20:50:21.982Z,7.00
2022-09-18T20:52:49.488Z,6.85
2022-09-18T20:55:17.738Z,12.13
2022-09-18T20:57:50.689Z,9.88
2022-09-18T21:00:18.227Z,7.28
2022-09-18T21:02:54.312Z,9.10
2022-09-18T21:05:24.371Z,9.68
2022-09-18T21:07:57.380Z,12.40
2022-09-18T21:10:27.013Z,9.80
2022-09-18T21:12:54.079Z,7.28
2022-09-18T21:15:21.374Z,13.00
2022-09-18T21:17:53.700Z,9.48
2022-09-18T21:20:23.743Z,15.13
2022-09-18T21:23:14.590Z,9.25
2022-09-18T21:25:42.394Z,6.72
2022-09-18T21:28:14.159Z,15.80
2022-09-18T21:30:43.910Z,8.32
2022-09-18T21:33:15.429Z,8.18
2022-09-18T21:35:54.828Z,6.63
2022-09-18T21:38:27.763Z,6.43
2022-09-18T21:41:08.444Z,7.97
2022-09-18T21:43:45.441Z,7.68
2022-09-18T21:46:19.458Z,7.05
2022-09-18T21:48:48.474Z,6.85
2022-09-18T21:51:17.099Z,10.73
2022-09-18T21:53:49.584Z,5.38
2022-09-18T21:56:19.843Z,5.40
2022-09-18T21:58:48.118Z,7.72
2022-09-18T22:01:20.810Z,6.13
2022-09-18T22:03:53.507Z,4.60
2022-09-18T22:06:30.189Z,7.75
2022-09-18T22:08:59.430Z,6.65
2022-09-18T22:11:30.795Z,7.95
2022-09-18T22:14:03.275Z,11.63
2022-09-18T22:16:30.393Z,6.30
2022-09-18T22:18:57.963Z,7.13
2022-09-18T22:21:32.962Z,7.38
2022-09-18T22:24:09.075Z,4.78
2022-09-18T22:26:42.012Z,7.22
2022-09-18T22:29:18.583Z,5.32
2022-09-18T22:31:49.594Z,4.43
2022-09-18T22:34:23.181Z,6.32
2022-09-18T22:36:53.697Z,6.65
2022-09-18T22:39:23.414Z,4.07
2022-09-18T22:41:53.886Z,6.38
2022-09-18T22:44:22.183Z,6.60
2022-09-18T22:46:52.028Z,2.97
2022-09-18T22:49:26.442Z,6.05
2022-09-18T22:54:25.178Z,10.05
2022-09-18T22:56:53.488Z,5.95
2022-09-18T22:59:25.755Z,6.45
2022-09-18T23:02:04.178Z,6.05
2022-09-18T23:04:33.672Z,5.90
2022-09-18T23:07:01.643Z,3.67
2022-09-18T23:09:33.681Z,3.83
2022-09-18T23:14:31.112Z,9.68
2022-09-18T23:16:59.792Z,7.22
2022-09-18T23:19:32.610Z,9.07
2022-09-18T23:21:59.832Z,6.88
2022-09-18T23:24:27.551Z,3.97
2022-09-18T23:26:58.474Z,4.25
2022-09-18T23:29:31.899Z,8.57
2022-09-18T23:31:59.733Z,8.25
2022-09-18T23:34:33.230Z,5.88
2022-09-18T23:37:01.021Z,5.88
2022-09-18T23:39:33.559Z,3.65
2022-09-18T23:42:05.618Z,7.18
2022-09-18T23:44:37.302Z,4.72
2022-09-18T23:47:04.630Z,6.63
2022-09-18T23:49:31.833Z,3.83
2022-09-18T23:51:59.871Z,4.25
2022-09-18T23:54:33.398Z,4.10
2022-09-18T23:57:01.029Z,4.78
2022-09-18T23:59:28.358Z,6.18
